Observations for BRESCIA MONTICHIA, Italy (LIPO)

LIPO 201950Z 05003KT 3000 BR NSC 06/05 Q1025
LIPO 201850Z 12003KT 3000 BR NSC 07/05 Q1025
LIPO 201750Z 14005KT 3000 BR NSC 08/05 Q1024
LIPO 201650Z 17001KT 4000 BR NSC 10/05 Q1024
LIPO 201550Z 24002KT 5000 BR NSC 11/05 Q1023
LIPO 201450Z 26004KT 5000 BR NSC 10/05 Q1024
LIPO 201350Z 26005KT 3000 BR SCT060 09/05 Q1024 
LIPO 201250Z 24005KT 1000 R32/P2000 BR BKN006 08/06 Q1024   
LIPO 201150Z 23003KT 1000 R32/1800 BR BKN005 07/06 Q1025
LIPO 201050Z 24003KT 0800 R32/1500 FG BKN003 06/05 Q1025
LIPO 200950Z 31001KT 0800 R32/1200 FG BKN003 05/05 Q1025
LIPO 200850Z 11002KT 0600 R32/1100 FG BKN003 05/05 Q1025
LIPO 200750Z 13003KT 0600 R32/1000 FG BKN003 04/04 Q1025
LIPO 200650Z 08004KT 0300 R32/0550 FG OVC003 04/04 Q1024
LIPO 200550Z 07004KT 0200 R32/0325 FG VV/// 04/04 Q1023 
LIPO 200450Z 07003KT 0200 R32/0250 FG VV/// 04/04 Q1023 
LIPO 200350Z 10005KT 0200 R32/0250 FG VV/// 04/04 Q1023 
LIPO 200250Z 08004KT 0200 R32/0250 FG VV/// 03/03 Q1023 
LIPO 200150Z 02002KT 3000 BR NSC 03/03 Q1023
LIPO 200050Z 08004KT 3000 BR NSC 03/03 Q1023
LIPO 192350Z 12003KT 3000 BR SCT040 04/03 Q1023 
LIPO 192250Z 10005KT 5000 BR SCT040 05/04 Q1023 
LIPO 192150Z 11002KT 5000 BR SCT040 05/04 Q1023 
LIPO 192050Z 14005KT 7000 FEW050 06/04 Q1022
LIPO 191950Z 08002KT CAVOK 08/04 Q1022